Time;durP1;ratioP1;P1;durP2;ratioP2;P2;SDS_P1;SDS_P2;PMS_P1;PMS_P2;Temp;Humidity;BMP_temperature;BMP_pressure;BME280_temperature;BME280_humidity;BME280_pressure;Samples;Min_cycle;Max_cycle;Signal;HPM_P1;HPM_P2
2022/06/03 00:00:38;;;;;;;;;;;10.20;99.90;;;;;;5079905;28;19947;-71
2022/06/03 00:03:22;;;;;;;;;;;10.20;99.90;;;;;;5083371;28;19920;-71
2022/06/03 00:06:09;;;;;;;;;;;10.20;99.90;;;;;;5089638;28;20018;-71
2022/06/03 00:08:59;;;;;;;;;;;10.20;99.90;;;;;;5123555;27;19920;-70
2022/06/03 00:11:28;;;;;;;;;;;10.20;99.90;;;;;;5084373;28;20329;-71
2022/06/03 00:13:54;;;;;;;;;;;10.20;99.90;;;;;;5083710;28;19924;-71
2022/06/03 00:16:29;;;;;;;;;;;10.20;99.90;;;;;;5086571;28;19924;-72
2022/06/03 00:19:11;;;;;;;;;;;10.20;99.90;;;;;;5078998;28;19931;-72
2022/06/03 00:21:37;;;;;;;;;;;10.20;99.90;;;;;;5082203;28;21318;-71
2022/06/03 00:24:02;;;;;;;;;;;10.20;99.90;;;;;;5084652;28;19924;-71
2022/06/03 00:26:46;;;;;;;;;;;10.10;99.90;;;;;;5087293;28;19924;-71
2022/06/03 00:29:30;;;;;;;;;;;10.10;99.90;;;;;;5084612;28;19920;-71
2022/06/03 00:31:56;;;;;;;;;;;10.00;99.90;;;;;;5083171;28;19928;-71
2022/06/03 00:34:40;;;;;;;;;;;10.10;99.90;;;;;;5091523;28;19925;-71
2022/06/03 00:37:05;;;;;;;;;;;10.10;99.90;;;;;;5115236;27;19921;-71
2022/06/03 00:39:40;;;;;;;;;;;10.10;99.90;;;;;;5085238;28;19965;-72
2022/06/03 00:42:27;;;;;;;;;;;10.00;99.90;;;;;;5086192;28;19990;-71
2022/06/03 00:45:02;;;;;;;;;;;10.00;99.90;;;;;;5086249;28;19924;-71
2022/06/03 00:47:46;;;;;;;;;;;9.90;99.90;;;;;;5081161;28;20284;-72
2022/06/03 00:50:29;;;;;;;;;;;9.90;99.90;;;;;;5088544;28;20506;-71
2022/06/03 00:53:03;;;;;;;;;;;9.90;99.90;;;;;;5082282;28;19924;-72
2022/06/03 00:55:32;;;;;;;;;;;9.80;99.90;;;;;;5085827;28;19921;-71
2022/06/03 00:58:06;;;;;;;;;;;9.80;99.90;;;;;;5084664;28;20279;-71
2022/06/03 01:00:35;;;;;;;;;;;9.80;99.90;;;;;;5092755;28;20207;-71
2022/06/03 01:03:10;;;;;;;;;;;9.70;99.90;;;;;;5084065;28;19930;-71
2022/06/03 01:05:44;;;;;;;;;;;9.70;99.90;;;;;;5083852;28;20361;-72
2022/06/03 01:08:14;;;;;;;;;;;9.60;99.90;;;;;;5080369;28;19924;-71
2022/06/03 01:10:47;;;;;;;;;;;9.70;99.90;;;;;;5092095;28;19920;-72
2022/06/03 01:13:48;;;;;;;;;;;9.60;99.90;;;;;;5085695;28;19939;-72
2022/06/03 01:16:32;;;;;;;;;;;9.60;99.90;;;;;;5009263;28;19944;-72
2022/06/03 01:19:11;;;;;;;;;;;9.60;99.90;;;;;;5074440;28;20333;-72
2022/06/03 01:21:49;;;;;;;;;;;9.60;99.90;;;;;;5084221;28;19966;-72
2022/06/03 01:24:20;;;;;;;;;;;9.50;99.90;;;;;;5076092;28;20018;-72
2022/06/03 01:27:05;;;;;;;;;;;9.50;99.90;;;;;;5079108;28;19921;-72
2022/06/03 01:29:36;;;;;;;;;;;9.50;99.90;;;;;;5082990;28;19928;-72
2022/06/03 01:32:05;;;;;;;;;;;9.50;99.90;;;;;;5086219;28;19924;-72
2022/06/03 01:34:57;;;;;;;;;;;9.50;99.90;;;;;;5077861;28;19963;-72
2022/06/03 01:37:27;;;;;;;;;;;9.50;99.90;;;;;;5060178;28;19931;-71
2022/06/03 01:39:58;;;;;;;;;;;9.40;99.90;;;;;;5077684;28;20123;-72
2022/06/03 01:42:42;;;;;;;;;;;9.40;99.90;;;;;;5081754;28;19970;-72
2022/06/03 01:45:22;;;;;;;;;;;9.40;99.90;;;;;;5089448;28;19928;-72
2022/06/03 01:48:04;;;;;;;;;;;9.40;99.90;;;;;;5087970;28;20053;-72
2022/06/03 01:50:48;;;;;;;;;;;9.40;99.90;;;;;;5089153;28;19927;-72
2022/06/03 01:53:13;;;;;;;;;;;9.30;99.90;;;;;;5114578;27;19924;-73
2022/06/03 01:55:57;;;;;;;;;;;9.30;99.90;;;;;;5082476;28;20058;-72
2022/06/03 01:58:29;;;;;;;;;;;9.30;99.90;;;;;;5084958;28;19925;-72
2022/06/03 02:01:03;;;;;;;;;;;9.20;99.90;;;;;;5086801;28;19935;-73
2022/06/03 02:03:50;;;;;;;;;;;9.20;99.90;;;;;;5084333;28;19920;-73
2022/06/03 02:06:15;;;;;;;;;;;9.20;99.90;;;;;;5085657;28;19948;-72
2022/06/03 02:09:01;;;;;;;;;;;9.20;99.90;;;;;;5080151;28;19924;-73
2022/06/03 02:11:46;;;;;;;;;;;9.20;99.90;;;;;;5082880;28;20076;-73
2022/06/03 02:14:37;;;;;;;;;;;9.20;99.90;;;;;;5079929;28;19979;-72
2022/06/03 02:17:09;;;;;;;;;;;9.20;99.90;;;;;;5055175;28;19966;-73
2022/06/03 02:19:41;;;;;;;;;;;9.20;99.90;;;;;;5076630;28;19999;-72
2022/06/03 02:22:23;;;;;;;;;;;9.20;99.90;;;;;;5083160;28;19973;-73
2022/06/03 02:24:57;;;;;;;;;;;9.10;99.90;;;;;;5081417;28;19924;-72
2022/06/03 02:27:23;;;;;;;;;;;9.10;99.90;;;;;;5085783;28;19943;-72
2022/06/03 02:32:43;;;;;;;;;;;9.00;99.90;;;;;;5075187;28;20427;-72
2022/06/03 02:35:16;;;;;;;;;;;9.00;99.90;;;;;;5084475;28;19927;-72
2022/06/03 02:37:52;;;;;;;;;;;9.00;99.90;;;;;;5079897;28;19927;-72
2022/06/03 02:40:39;;;;;;;;;;;8.90;99.90;;;;;;5074201;28;19978;-72
2022/06/03 02:43:14;;;;;;;;;;;9.00;99.90;;;;;;5081699;28;19927;-72
2022/06/03 02:45:48;;;;;;;;;;;8.90;99.90;;;;;;5073346;28;20432;-72
2022/06/03 02:48:38;;;;;;;;;;;8.90;99.90;;;;;;5108705;28;20019;-72
2022/06/03 02:51:18;;;;;;;;;;;9.00;99.90;;;;;;5083976;28;20026;-72
2022/06/03 02:54:02;;;;;;;;;;;9.00;99.90;;;;;;5074459;28;20019;-72
2022/06/03 02:56:43;;;;;;;;;;;8.90;99.90;;;;;;5079760;28;19924;-72
2022/06/03 02:59:28;;;;;;;;;;;9.00;99.90;;;;;;5081617;28;19973;-72
2022/06/03 03:02:01;;;;;;;;;;;8.90;99.90;;;;;;5070611;28;19920;-73
2022/06/03 03:04:35;;;;;;;;;;;9.00;99.90;;;;;;5073648;28;19950;-72
2022/06/03 03:07:10;;;;;;;;;;;8.90;99.90;;;;;;5081820;28;19939;-72
2022/06/03 03:09:43;;;;;;;;;;;8.90;99.90;;;;;;5080065;28;19920;-72
2022/06/03 03:12:09;;;;;;;;;;;8.90;99.90;;;;;;5082585;28;19928;-73
2022/06/03 03:14:46;;;;;;;;;;;9.00;99.90;;;;;;5082683;28;19923;-72
2022/06/03 03:17:24;;;;;;;;;;;9.00;99.90;;;;;;5080953;28;19927;-72
2022/06/03 03:20:01;;;;;;;;;;;8.90;99.90;;;;;;5075295;28;19920;-72
2022/06/03 03:22:45;;;;;;;;;;;8.90;99.90;;;;;;5082531;28;19928;-72
2022/06/03 03:25:14;;;;;;;;;;;9.00;99.90;;;;;;5080473;28;19931;-72
2022/06/03 03:27:55;;;;;;;;;;;8.90;99.90;;;;;;5083562;28;19920;-72
2022/06/03 03:30:20;;;;;;;;;;;9.00;99.90;;;;;;5080411;28;19924;-72
2022/06/03 03:32:49;;;;;;;;;;;8.90;99.90;;;;;;5021018;28;1806129;-72
2022/06/03 03:35:47;;;;;;;;;;;8.90;99.90;;;;;;5080779;28;19935;-72
2022/06/03 03:38:12;;;;;;;;;;;9.00;99.90;;;;;;5049841;28;19931;-72
2022/06/03 03:41:05;;;;;;;;;;;9.00;99.90;;;;;;5080129;28;19928;-72
2022/06/03 03:43:50;;;;;;;;;;;9.10;99.90;;;;;;5080542;28;19933;-72
2022/06/03 03:46:16;;;;;;;;;;;9.10;99.90;;;;;;5081991;28;20357;-71
2022/06/03 03:48:57;;;;;;;;;;;9.20;99.90;;;;;;5073552;28;20023;-72
2022/06/03 03:51:22;;;;;;;;;;;9.20;99.90;;;;;;5082884;28;20492;-72
2022/06/03 03:53:54;;;;;;;;;;;9.20;99.90;;;;;;5083268;28;19925;-71
2022/06/03 03:56:38;;;;;;;;;;;9.30;99.90;;;;;;5080352;28;20335;-72
2022/06/03 03:59:16;;;;;;;;;;;9.40;99.90;;;;;;5087416;28;19920;-71
2022/06/03 04:01:50;;;;;;;;;;;9.40;99.90;;;;;;5081005;28;20371;-73
2022/06/03 04:04:19;;;;;;;;;;;9.40;99.90;;;;;;5075098;28;19927;-73
2022/06/03 04:06:50;;;;;;;;;;;9.40;99.90;;;;;;5081095;28;19924;-72
2022/06/03 04:09:24;;;;;;;;;;;9.50;99.90;;;;;;5060002;28;21281;-71
2022/06/03 04:12:09;;;;;;;;;;;9.50;99.90;;;;;;5081624;28;19920;-72
2022/06/03 04:14:48;;;;;;;;;;;9.50;99.90;;;;;;5076051;28;20385;-72
2022/06/03 04:17:33;;;;;;;;;;;9.60;99.90;;;;;;5066728;28;19920;-71
2022/06/03 04:20:01;;;;;;;;;;;9.60;99.90;;;;;;5078300;28;19946;-71
2022/06/03 04:22:42;;;;;;;;;;;9.60;99.90;;;;;;5078808;28;19920;-71
2022/06/03 04:25:26;;;;;;;;;;;9.60;99.90;;;;;;5078648;28;19923;-70
2022/06/03 04:28:05;;;;;;;;;;;9.70;99.90;;;;;;5078595;28;20358;-71
2022/06/03 04:30:31;;;;;;;;;;;9.70;99.90;;;;;;5079132;28;20291;-71
2022/06/03 04:33:15;;;;;;;;;;;9.80;99.90;;;;;;5079581;28;19931;-71
2022/06/03 04:35:59;;;;;;;;;;;9.80;99.90;;;;;;5079493;28;19928;-70
2022/06/03 04:38:40;;;;;;;;;;;9.90;99.90;;;;;;5084660;28;19928;-71
2022/06/03 04:41:24;;;;;;;;;;;10.00;99.90;;;;;;5110823;27;19935;-71
2022/06/03 04:43:54;;;;;;;;;;;10.10;99.90;;;;;;5080937;28;19925;-69
2022/06/03 04:46:53;;;;;;;;;;;10.20;99.90;;;;;;5078066;28;19921;-72
2022/06/03 04:49:28;;;;;;;;;;;10.30;99.90;;;;;;5081964;28;19927;-71
2022/06/03 04:52:02;;;;;;;;;;;10.40;99.90;;;;;;5085169;28;20024;-74
2022/06/03 04:54:47;;;;;;;;;;;10.50;99.90;;;;;;5084165;28;19931;-72
2022/06/03 04:57:31;;;;;;;;;;;10.60;99.90;;;;;;5085439;28;19928;-72
2022/06/03 05:00:16;;;;;;;;;;;10.80;99.90;;;;;;5095936;27;20294;-70
2022/06/03 05:03:01;;;;;;;;;;;10.80;99.90;;;;;;5080025;28;19946;-70
2022/06/03 05:05:45;;;;;;;;;;;11.00;99.90;;;;;;5083636;28;19924;-70
2022/06/03 05:08:10;;;;;;;;;;;11.10;99.90;;;;;;5078083;28;19964;-72
2022/06/03 05:10:55;;;;;;;;;;;11.20;99.90;;;;;;5077232;28;19980;-74
2022/06/03 05:13:32;;;;;;;;;;;11.30;99.90;;;;;;5112556;27;19928;-73
2022/06/03 05:16:10;;;;;;;;;;;11.40;99.90;;;;;;5094666;28;19920;-73
2022/06/03 05:18:48;;;;;;;;;;;11.50;99.90;;;;;;5090075;28;20291;-70
2022/06/03 05:21:23;;;;;;;;;;;11.60;99.90;;;;;;5094720;28;19924;-70
2022/06/03 05:24:04;;;;;;;;;;;11.70;99.90;;;;;;5100014;28;19983;-70
2022/06/03 05:26:47;;;;;;;;;;;11.80;99.90;;;;;;5066000;28;19943;-70
2022/06/03 05:29:31;;;;;;;;;;;11.90;99.90;;;;;;5093946;28;19924;-69
2022/06/03 05:32:19;;;;;;;;;;;12.00;99.90;;;;;;5091711;28;20317;-72
2022/06/03 05:34:47;;;;;;;;;;;12.10;99.90;;;;;;5077876;28;20017;-69
2022/06/03 05:37:32;;;;;;;;;;;12.30;99.90;;;;;;5084057;28;19935;-73
2022/06/03 05:40:10;;;;;;;;;;;12.30;99.90;;;;;;5077693;28;19920;-71
2022/06/03 05:42:41;;;;;;;;;;;12.40;99.90;;;;;;5086370;28;19924;-72
2022/06/03 05:45:10;;;;;;;;;;;12.50;99.90;;;;;;5075633;28;19928;-72
2022/06/03 05:47:54;;;;;;;;;;;12.50;99.90;;;;;;5083845;28;19928;-70
2022/06/03 05:50:24;;;;;;;;;;;12.70;99.90;;;;;;5103442;27;19920;-70
2022/06/03 05:52:59;;;;;;;;;;;12.80;99.90;;;;;;5080423;28;20397;-72
2022/06/03 05:55:34;;;;;;;;;;;12.90;99.90;;;;;;5085186;28;19935;-70
2022/06/03 05:58:06;;;;;;;;;;;13.00;99.90;;;;;;5096272;28;19928;-72
2022/06/03 06:00:46;;;;;;;;;;;13.10;99.90;;;;;;5086996;28;19924;-70
2022/06/03 06:03:26;;;;;;;;;;;13.20;99.90;;;;;;5078915;28;19920;-69
2022/06/03 06:06:02;;;;;;;;;;;13.30;99.90;;;;;;5083275;28;19927;-72
2022/06/03 06:08:35;;;;;;;;;;;13.40;99.90;;;;;;5114580;27;19928;-70
2022/06/03 06:11:19;;;;;;;;;;;13.50;99.90;;;;;;5078786;28;20457;-69
2022/06/03 06:13:44;;;;;;;;;;;13.60;99.90;;;;;;5082218;28;20377;-69
2022/06/03 06:16:25;;;;;;;;;;;13.70;99.90;;;;;;5080802;28;19924;-70
2022/06/03 06:19:05;;;;;;;;;;;13.80;99.90;;;;;;5096807;27;20215;-69
2022/06/03 06:21:39;;;;;;;;;;;13.90;99.90;;;;;;5081637;28;20014;-76
2022/06/03 06:24:09;;;;;;;;;;;14.00;99.90;;;;;;5114740;27;20006;-70
2022/06/03 06:26:44;;;;;;;;;;;14.10;99.90;;;;;;5083489;28;20402;-70
2022/06/03 06:29:38;;;;;;;;;;;14.20;99.90;;;;;;5108387;27;19971;-71
2022/06/03 06:32:31;;;;;;;;;;;14.30;99.90;;;;;;5081718;28;19920;-74
2022/06/03 06:35:26;;;;;;;;;;;14.40;99.90;;;;;;5077976;28;19982;-73
2022/06/03 06:37:59;;;;;;;;;;;14.40;99.90;;;;;;5081824;28;19934;-73
2022/06/03 06:40:31;;;;;;;;;;;14.50;99.90;;;;;;5082957;28;19965;-73
2022/06/03 06:43:00;;;;;;;;;;;14.60;99.90;;;;;;5084166;28;19931;-74
2022/06/03 06:45:38;;;;;;;;;;;14.70;99.90;;;;;;5087105;28;20007;-75
2022/06/03 06:48:10;;;;;;;;;;;14.80;99.90;;;;;;5089051;28;19979;-71
2022/06/03 06:50:35;;;;;;;;;;;14.90;99.90;;;;;;5089968;28;19920;-73
2022/06/03 06:53:08;;;;;;;;;;;15.00;99.90;;;;;;5072620;28;19928;-73
2022/06/03 06:55:49;;;;;;;;;;;15.10;99.90;;;;;;5118560;27;20014;-75
2022/06/03 06:58:25;;;;;;;;;;;15.20;99.90;;;;;;5082171;28;19924;-71
2022/06/03 07:00:52;;;;;;;;;;;15.30;99.90;;;;;;5107289;27;19934;-72
2022/06/03 07:03:22;;;;;;;;;;;15.40;99.90;;;;;;5078036;28;19920;-68
2022/06/03 07:05:53;;;;;;;;;;;15.50;99.90;;;;;;5088225;28;19920;-71
2022/06/03 07:08:24;;;;;;;;;;;15.60;99.90;;;;;;5105726;28;20334;-73
2022/06/03 07:10:54;;;;;;;;;;;15.80;99.90;;;;;;5106905;28;20385;-71
2022/06/03 07:13:40;;;;;;;;;;;15.90;99.90;;;;;;5120879;27;19963;-69
2022/06/03 07:19:47;;;;;;;;;;;15.90;99.90;;;;;;5090291;28;19924;-70
2022/06/03 07:22:05;;;;;;;;;;;16.20;99.90;;;;;;5087201;28;20126;-69
2022/06/03 07:24:38;;;;;;;;;;;16.40;99.90;;;;;;5089862;28;20084;-73
2022/06/03 07:27:07;;;;;;;;;;;16.50;99.90;;;;;;5086165;28;19925;-72
2022/06/03 07:30:02;;;;;;;;;;;16.60;99.90;;;;;;5105558;28;19927;-73
2022/06/03 07:32:32;;;;;;;;;;;16.60;99.90;;;;;;5056345;28;19925;-69
2022/06/03 07:35:01;;;;;;;;;;;16.70;99.90;;;;;;5070052;28;19920;-70
2022/06/03 07:37:39;;;;;;;;;;;16.70;99.90;;;;;;5069627;28;20317;-73
2022/06/03 07:40:19;;;;;;;;;;;16.80;99.90;;;;;;5075871;28;19942;-68
2022/06/03 07:42:56;;;;;;;;;;;16.90;99.90;;;;;;5083039;28;19926;-68
2022/06/03 07:45:36;;;;;;;;;;;17.00;99.90;;;;;;5082915;28;19924;-70
2022/06/03 07:48:22;;;;;;;;;;;17.10;99.90;;;;;;5084998;28;20051;-74
2022/06/03 07:50:51;;;;;;;;;;;17.20;99.90;;;;;;5087052;28;19943;-72
2022/06/03 07:53:18;;;;;;;;;;;17.30;99.90;;;;;;5089339;28;20011;-74
2022/06/03 07:55:50;;;;;;;;;;;17.40;99.90;;;;;;5090733;28;19969;-73
2022/06/03 07:58:17;;;;;;;;;;;17.50;99.90;;;;;;5091975;28;20405;-71
2022/06/03 08:00:45;;;;;;;;;;;17.50;99.90;;;;;;5090212;28;19963;-73
2022/06/03 08:03:15;;;;;;;;;;;17.60;99.90;;;;;;5105726;28;19924;-71
2022/06/03 08:05:43;;;;;;;;;;;17.70;99.90;;;;;;5089955;28;19920;-71
2022/06/03 08:10:57;;;;;;;;;;;17.90;99.90;;;;;;5074002;28;19930;-72
2022/06/03 08:13:23;;;;;;;;;;;18.00;99.90;;;;;;5116110;27;20443;-72
2022/06/03 08:16:00;;;;;;;;;;;18.10;99.90;;;;;;5093469;28;19920;-74
2022/06/03 08:18:28;;;;;;;;;;;18.10;99.90;;;;;;5092097;28;19926;-74
2022/06/03 08:20:59;;;;;;;;;;;18.20;99.90;;;;;;5073757;28;20015;-72
2022/06/03 08:23:25;;;;;;;;;;;18.30;99.90;;;;;;5073004;28;19922;-73
2022/06/03 08:25:52;;;;;;;;;;;18.40;99.90;;;;;;5083945;28;19920;-71
2022/06/03 08:28:20;;;;;;;;;;;18.40;99.90;;;;;;5110571;27;19920;-72
2022/06/03 08:30:47;;;;;;;;;;;18.50;99.90;;;;;;5092740;28;19998;-72
2022/06/03 08:33:14;;;;;;;;;;;18.50;99.90;;;;;;5119333;27;19976;-73
2022/06/03 08:35:44;;;;;;;;;;;18.50;99.90;;;;;;5072761;28;19926;-73
2022/06/03 08:38:21;;;;;;;;;;;18.50;99.90;;;;;;5093584;28;19942;-71
2022/06/03 08:40:46;;;;;;;;;;;18.60;99.90;;;;;;5094378;28;20433;-73
2022/06/03 08:43:19;;;;;;;;;;;18.80;99.90;;;;;;5084455;28;19929;-73
2022/06/03 08:45:53;;;;;;;;;;;18.90;99.90;;;;;;5073422;28;19921;-69
2022/06/03 08:48:21;;;;;;;;;;;19.00;99.90;;;;;;5075853;28;20072;-72
2022/06/03 08:50:49;;;;;;;;;;;19.10;99.90;;;;;;5092406;28;19924;-73
2022/06/03 08:53:23;;;;;;;;;;;19.20;99.90;;;;;;5085889;28;19966;-71
2022/06/03 08:55:59;;;;;;;;;;;19.30;99.90;;;;;;5110819;28;20418;-74
2022/06/03 08:58:28;;;;;;;;;;;19.30;99.90;;;;;;5107567;28;19959;-71
2022/06/03 09:01:00;;;;;;;;;;;19.50;99.90;;;;;;5082527;28;19927;-72
2022/06/03 09:03:27;;;;;;;;;;;19.60;99.90;;;;;;5111926;28;20278;-74
2022/06/03 09:05:58;;;;;;;;;;;19.70;99.90;;;;;;5107195;28;20289;-75
2022/06/03 09:08:42;;;;;;;;;;;19.70;99.90;;;;;;5126584;27;19924;-72
2022/06/03 09:11:11;;;;;;;;;;;19.70;99.90;;;;;;5092318;28;19928;-72
2022/06/03 09:13:55;;;;;;;;;;;19.80;99.90;;;;;;5092080;28;19924;-74
2022/06/03 09:16:21;;;;;;;;;;;19.80;99.90;;;;;;5092182;28;19920;-72
2022/06/03 09:18:52;;;;;;;;;;;19.90;99.90;;;;;;5091821;28;19927;-74
2022/06/03 09:21:19;;;;;;;;;;;19.90;99.90;;;;;;5081773;28;19920;-73
2022/06/03 09:23:54;;;;;;;;;;;20.00;99.90;;;;;;5074455;28;20023;-72
2022/06/03 09:26:32;;;;;;;;;;;20.10;99.90;;;;;;5092143;28;19999;-73
2022/06/03 09:28:58;;;;;;;;;;;20.10;99.90;;;;;;5091333;28;19943;-73
2022/06/03 09:31:24;;;;;;;;;;;20.20;99.90;;;;;;5093342;28;19973;-73
2022/06/03 09:33:51;;;;;;;;;;;20.20;99.90;;;;;;5092026;28;19924;-71
2022/06/03 09:36:18;;;;;;;;;;;20.30;99.90;;;;;;5092033;28;19986;-74
2022/06/03 09:38:56;;;;;;;;;;;20.40;99.90;;;;;;5086865;28;19970;-75
2022/06/03 09:41:24;;;;;;;;;;;20.40;99.90;;;;;;5087273;28;20397;-71
2022/06/03 09:43:53;;;;;;;;;;;20.50;99.90;;;;;;5102243;28;19920;-73
2022/06/03 09:46:20;;;;;;;;;;;20.50;99.90;;;;;;5091598;28;19920;-71
2022/06/03 09:48:45;;;;;;;;;;;20.50;99.90;;;;;;5084517;28;19924;-75
2022/06/03 09:51:55;;;;;;;;;;;20.50;99.90;;;;;;5091595;28;19931;-72
2022/06/03 09:54:12;;;;;;;;;;;20.50;99.90;;;;;;5091380;28;19932;-72
2022/06/03 09:56:38;;;;;;;;;;;20.50;99.90;;;;;;5087495;28;20305;-69
2022/06/03 09:59:04;;;;;;;;;;;20.40;99.90;;;;;;5090532;28;19920;-71
2022/06/03 10:01:30;;;;;;;;;;;20.50;99.90;;;;;;5091179;28;19920;-72
2022/06/03 10:04:04;;;;;;;;;;;20.50;99.90;;;;;;5091410;28;19924;-72
2022/06/03 10:06:50;;;;;;;;;;;20.50;99.90;;;;;;5091518;28;19975;-73
2022/06/03 10:17:41;;;;;;;;;;;20.80;99.90;;;;;;5090304;28;20023;-72
2022/06/03 10:20:08;;;;;;;;;;;20.80;99.90;;;;;;5089901;28;20442;-74
2022/06/03 10:22:34;;;;;;;;;;;20.90;99.90;;;;;;5092295;28;19920;-72
2022/06/03 10:24:59;;;;;;;;;;;20.90;99.90;;;;;;5091292;28;19926;-72
2022/06/03 10:27:26;;;;;;;;;;;20.90;99.90;;;;;;5083450;28;19924;-73
2022/06/03 10:29:52;;;;;;;;;;;21.00;99.90;;;;;;5104041;27;20356;-71
2022/06/03 10:32:19;;;;;;;;;;;21.10;99.90;;;;;;5087863;28;19928;-73
2022/06/03 10:34:44;;;;;;;;;;;21.10;99.90;;;;;;5078685;28;20065;-73
2022/06/03 10:37:15;;;;;;;;;;;21.20;99.90;;;;;;5084172;28;20026;-70
2022/06/03 10:39:41;;;;;;;;;;;21.20;99.90;;;;;;5078652;28;19963;-74
2022/06/03 10:42:11;;;;;;;;;;;21.30;99.90;;;;;;5078403;28;19920;-74
2022/06/03 10:44:41;;;;;;;;;;;21.30;99.90;;;;;;5079255;28;19966;-73
2022/06/03 10:47:14;;;;;;;;;;;21.30;99.90;;;;;;5081820;28;19920;-72
2022/06/03 10:49:53;;;;;;;;;;;21.20;99.90;;;;;;5081176;28;19981;-74
2022/06/03 11:03:30;;;;;;;;;;;21.30;99.90;;;;;;5081759;28;20366;-72
2022/06/03 11:05:56;;;;;;;;;;;21.30;99.90;;;;;;5075532;28;20340;-73
2022/06/03 11:08:21;;;;;;;;;;;21.30;99.90;;;;;;5086204;28;19964;-73
2022/06/03 11:10:50;;;;;;;;;;;21.20;99.90;;;;;;5084987;28;19931;-74
2022/06/03 11:13:32;;;;;;;;;;;21.00;99.90;;;;;;5083787;28;20015;-72
2022/06/03 11:16:12;;;;;;;;;;;20.90;99.90;;;;;;5086080;28;20314;-72
2022/06/03 11:18:37;;;;;;;;;;;21.00;99.90;;;;;;5101598;27;20367;-73
2022/06/03 11:21:17;;;;;;;;;;;21.20;99.90;;;;;;5098264;28;19966;-73
2022/06/03 11:23:42;;;;;;;;;;;21.20;99.90;;;;;;5087798;28;20291;-74
2022/06/03 11:26:08;;;;;;;;;;;21.30;99.90;;;;;;5083478;28;19920;-72
2022/06/03 11:28:39;;;;;;;;;;;21.40;99.90;;;;;;5090412;28;19939;-73
2022/06/03 11:31:06;;;;;;;;;;;21.50;99.90;;;;;;5087402;28;19920;-74
2022/06/03 11:33:38;;;;;;;;;;;21.50;99.90;;;;;;5079170;28;19933;-74
2022/06/03 11:36:09;;;;;;;;;;;21.60;99.90;;;;;;5101113;28;19919;-74
2022/06/03 11:38:44;;;;;;;;;;;21.70;99.90;;;;;;5093859;28;19920;-72
2022/06/03 11:41:21;;;;;;;;;;;21.60;99.90;;;;;;5089533;28;19943;-74
2022/06/03 11:43:56;;;;;;;;;;;21.50;99.90;;;;;;5093928;28;19928;-73
2022/06/03 11:46:29;;;;;;;;;;;21.50;99.90;;;;;;5087331;28;19928;-73
2022/06/03 11:48:54;;;;;;;;;;;21.50;99.90;;;;;;5075184;28;19931;-73
2022/06/03 11:51:20;;;;;;;;;;;21.50;99.90;;;;;;5075401;28;19980;-71
2022/06/03 11:53:47;;;;;;;;;;;21.50;99.90;;;;;;5074320;28;19935;-74
2022/06/03 11:56:15;;;;;;;;;;;21.50;99.90;;;;;;5073368;28;19924;-74
2022/06/03 11:58:44;;;;;;;;;;;21.60;99.90;;;;;;5076697;28;19920;-73
2022/06/03 12:01:13;;;;;;;;;;;21.60;99.90;;;;;;5095939;28;19920;-72
2022/06/03 12:03:51;;;;;;;;;;;21.70;99.90;;;;;;5084202;28;19927;-74
2022/06/03 12:06:20;;;;;;;;;;;21.70;99.90;;;;;;5097478;28;20207;-72
2022/06/03 12:08:58;;;;;;;;;;;21.80;99.90;;;;;;5106393;28;20282;-73
2022/06/03 12:14:29;;;;;;;;;;;21.80;99.90;;;;;;5093694;28;19979;-73
2022/06/03 12:17:00;;;;;;;;;;;21.80;99.90;;;;;;5105555;28;19920;-75
2022/06/03 12:19:45;;;;;;;;;;;21.80;99.90;;;;;;5093486;28;19926;-73
2022/06/03 12:22:29;;;;;;;;;;;21.80;99.90;;;;;;5091613;28;19927;-71
2022/06/03 12:24:54;;;;;;;;;;;21.90;99.90;;;;;;5084671;28;20332;-72
2022/06/03 12:27:37;;;;;;;;;;;21.80;99.90;;;;;;5083208;28;19920;-72
2022/06/03 12:30:14;;;;;;;;;;;21.90;99.90;;;;;;5091948;28;19927;-72
2022/06/03 12:32:48;;;;;;;;;;;21.90;99.80;;;;;;5112008;27;19970;-74
2022/06/03 12:35:32;;;;;;;;;;;21.90;99.90;;;;;;5107259;28;19994;-73
2022/06/03 12:38:18;;;;;;;;;;;21.90;99.90;;;;;;5088232;28;19920;-73
2022/06/03 12:40:43;;;;;;;;;;;21.90;99.90;;;;;;5077923;28;19921;-74
2022/06/03 12:43:28;;;;;;;;;;;21.80;99.90;;;;;;5074478;28;19982;-74
2022/06/03 12:46:01;;;;;;;;;;;21.90;99.90;;;;;;5077583;28;20006;-72
2022/06/03 12:48:53;;;;;;;;;;;22.00;99.90;;;;;;5088377;28;20337;-72
2022/06/03 12:51:26;;;;;;;;;;;21.90;99.30;;;;;;5093632;28;19926;-73
2022/06/03 12:54:15;;;;;;;;;;;21.90;99.90;;;;;;5106300;28;19932;-71
2022/06/03 12:56:51;;;;;;;;;;;21.90;99.90;;;;;;5061915;28;20302;-72
2022/06/03 12:59:27;;;;;;;;;;;21.80;99.90;;;;;;5073906;28;19972;-72
2022/06/03 13:02:00;;;;;;;;;;;21.80;99.90;;;;;;5097548;28;19968;-73
2022/06/03 13:04:34;;;;;;;;;;;21.80;99.90;;;;;;5113052;28;19920;-71
2022/06/03 13:07:18;;;;;;;;;;;21.70;95.00;;;;;;5094789;28;19942;-74
2022/06/03 13:09:48;;;;;;;;;;;21.60;99.20;;;;;;5125746;27;19963;-72
2022/06/03 13:12:28;;;;;;;;;;;21.70;99.90;;;;;;5094263;28;19924;-73
2022/06/03 13:14:54;;;;;;;;;;;21.70;99.90;;;;;;5106462;28;20007;-72
2022/06/03 13:17:38;;;;;;;;;;;21.70;99.90;;;;;;5115516;27;19928;-72
2022/06/03 13:20:04;;;;;;;;;;;21.80;99.90;;;;;;5077110;28;19920;-72
2022/06/03 13:22:44;;;;;;;;;;;21.90;99.90;;;;;;5120767;27;20397;-72
2022/06/03 13:25:16;;;;;;;;;;;21.80;96.60;;;;;;5092794;28;20060;-73
2022/06/03 13:28:01;;;;;;;;;;;21.90;99.90;;;;;;5115047;27;20012;-73
2022/06/03 13:30:37;;;;;;;;;;;21.90;99.90;;;;;;5082361;28;19928;-72
2022/06/03 13:33:15;;;;;;;;;;;21.80;98.60;;;;;;5093466;28;19989;-72
2022/06/03 13:36:02;;;;;;;;;;;21.80;98.00;;;;;;5072406;28;19943;-72
2022/06/03 13:38:42;;;;;;;;;;;21.80;97.30;;;;;;5072206;28;19946;-73
2022/06/03 13:44:02;;;;;;;;;;;22.00;94.60;;;;;;5085362;28;19969;-71
2022/06/03 13:46:30;;;;;;;;;;;22.10;97.70;;;;;;5092465;28;19946;-72
2022/06/03 13:48:58;;;;;;;;;;;22.10;99.80;;;;;;5091017;28;19924;-72
2022/06/03 13:51:28;;;;;;;;;;;22.10;99.20;;;;;;5102727;28;19926;-73
2022/06/03 13:54:12;;;;;;;;;;;22.00;96.30;;;;;;5112722;28;19927;-71
2022/06/03 13:56:38;;;;;;;;;;;21.80;93.90;;;;;;5085967;28;19924;-73
2022/06/03 13:59:11;;;;;;;;;;;21.70;94.80;;;;;;5091513;28;20023;-74
2022/06/03 14:01:44;;;;;;;;;;;21.70;98.70;;;;;;5092576;28;19927;-73
2022/06/03 14:04:21;;;;;;;;;;;21.80;96.90;;;;;;5093286;28;19920;-72
2022/06/03 14:06:56;;;;;;;;;;;21.80;97.80;;;;;;5091344;28;20282;-73
2022/06/03 14:09:31;;;;;;;;;;;21.80;95.90;;;;;;5091459;28;20401;-73
2022/06/03 14:12:09;;;;;;;;;;;21.90;96.80;;;;;;5076348;28;19942;-73
2022/06/03 14:14:38;;;;;;;;;;;22.00;98.00;;;;;;5091850;28;20378;-73
2022/06/03 14:17:28;;;;;;;;;;;21.90;95.80;;;;;;5091951;28;19920;-72
2022/06/03 14:20:11;;;;;;;;;;;22.00;97.00;;;;;;5074261;28;19926;-73
2022/06/03 14:22:41;;;;;;;;;;;22.00;95.30;;;;;;5088556;28;20200;-71
2022/06/03 14:25:15;;;;;;;;;;;22.10;96.90;;;;;;5075167;28;20277;-75
2022/06/03 14:27:46;;;;;;;;;;;22.10;94.90;;;;;;5074113;28;20383;-72
2022/06/03 14:30:19;;;;;;;;;;;22.10;97.70;;;;;;5078919;28;19924;-75
2022/06/03 14:32:46;;;;;;;;;;;22.10;96.50;;;;;;5089974;28;20347;-72
2022/06/03 14:35:18;;;;;;;;;;;22.10;96.80;;;;;;5092777;28;19974;-73
2022/06/03 14:37:46;;;;;;;;;;;22.20;98.00;;;;;;5075429;28;19920;-74
2022/06/03 14:40:21;;;;;;;;;;;22.20;94.60;;;;;;5069454;28;19924;-73
2022/06/03 14:42:49;;;;;;;;;;;22.10;95.20;;;;;;5071179;28;20413;-73
2022/06/03 14:45:15;;;;;;;;;;;22.20;98.10;;;;;;5082179;28;19920;-71
2022/06/03 14:47:45;;;;;;;;;;;22.20;99.70;;;;;;5080427;28;20363;-70
2022/06/03 14:50:15;;;;;;;;;;;22.30;97.80;;;;;;5104190;27;19920;-72
2022/06/03 14:52:43;;;;;;;;;;;22.30;95.50;;;;;;5074094;28;20445;-71
2022/06/03 14:55:14;;;;;;;;;;;22.20;94.70;;;;;;5075930;28;20282;-73
2022/06/03 14:57:58;;;;;;;;;;;22.10;94.50;;;;;;5070913;28;19973;-71
2022/06/03 15:00:34;;;;;;;;;;;22.10;94.70;;;;;;5079997;28;19968;-70
2022/06/03 15:03:07;;;;;;;;;;;22.10;95.70;;;;;;5091248;28;19924;-73
2022/06/03 15:05:41;;;;;;;;;;;22.20;95.70;;;;;;5077844;28;19971;-72
2022/06/03 15:08:12;;;;;;;;;;;22.20;94.50;;;;;;5091267;28;19966;-71
2022/06/03 15:10:43;;;;;;;;;;;22.20;96.70;;;;;;5072659;28;20010;-69
2022/06/03 15:13:20;;;;;;;;;;;22.20;94.20;;;;;;5070363;28;19928;-73
2022/06/03 15:15:48;;;;;;;;;;;22.30;95.00;;;;;;5096025;28;19928;-72
2022/06/03 15:18:15;;;;;;;;;;;22.30;95.50;;;;;;5071109;28;20436;-72
2022/06/03 15:20:41;;;;;;;;;;;22.30;96.50;;;;;;5106666;28;19978;-73
2022/06/03 15:23:07;;;;;;;;;;;22.30;94.90;;;;;;5091913;28;19959;-71
2022/06/03 15:25:45;;;;;;;;;;;22.40;96.80;;;;;;5107212;28;19955;-72
2022/06/03 15:28:12;;;;;;;;;;;22.30;94.30;;;;;;5105286;28;19920;-73
2022/06/03 15:30:40;;;;;;;;;;;22.30;93.60;;;;;;5089704;28;19966;-72
2022/06/03 15:33:09;;;;;;;;;;;22.30;95.50;;;;;;5090423;28;19924;-72
2022/06/03 15:35:34;;;;;;;;;;;22.20;94.30;;;;;;5090688;28;19920;-72
2022/06/03 15:38:01;;;;;;;;;;;22.20;95.80;;;;;;5069011;28;19935;-72